sensor_id;sensor_type;location;lat;lon;timestamp;P1;durP1;ratioP1;P2;durP2;ratioP2
19101;SDS011;9683;49.028;12.064;2022-11-20T00:00:18;63.97;;;11.60;;
19101;SDS011;9683;49.028;12.064;2022-11-20T00:02:44;81.82;;;11.30;;
19101;SDS011;9683;49.028;12.064;2022-11-20T00:05:11;157.10;;;33.67;;
19101;SDS011;9683;49.028;12.064;2022-11-20T00:07:38;178.32;;;52.78;;
19101;SDS011;9683;49.028;12.064;2022-11-20T00:10:05;164.90;;;47.22;;
19101;SDS011;9683;49.028;12.064;2022-11-20T00:12:31;101.75;;;19.23;;
19101;SDS011;9683;49.028;12.064;2022-11-20T00:14:58;71.13;;;13.25;;
19101;SDS011;9683;49.028;12.064;2022-11-20T00:17:26;54.53;;;11.20;;
19101;SDS011;9683;49.028;12.064;2022-11-20T00:19:53;62.20;;;10.07;;
19101;SDS011;9683;49.028;12.064;2022-11-20T00:22:19;82.07;;;13.23;;
19101;SDS011;9683;49.028;12.064;2022-11-20T00:24:46;77.20;;;10.85;;
19101;SDS011;9683;49.028;12.064;2022-11-20T00:27:12;86.10;;;12.15;;
19101;SDS011;9683;49.028;12.064;2022-11-20T00:29:39;81.30;;;11.27;;
19101;SDS011;9683;49.028;12.064;2022-11-20T00:32:06;59.53;;;11.98;;
19101;SDS011;9683;49.028;12.064;2022-11-20T00:34:33;61.28;;;11.02;;
19101;SDS011;9683;49.028;12.064;2022-11-20T00:37:00;83.93;;;14.40;;
19101;SDS011;9683;49.028;12.064;2022-11-20T00:39:27;56.65;;;9.45;;
19101;SDS011;9683;49.028;12.064;2022-11-20T00:41:53;81.30;;;10.05;;
19101;SDS011;9683;49.028;12.064;2022-11-20T00:44:20;76.97;;;9.73;;
19101;SDS011;9683;49.028;12.064;2022-11-20T00:46:47;100.97;;;18.10;;
19101;SDS011;9683;49.028;12.064;2022-11-20T00:49:14;61.88;;;14.15;;
19101;SDS011;9683;49.028;12.064;2022-11-20T00:51:42;89.15;;;13.48;;
19101;SDS011;9683;49.028;12.064;2022-11-20T00:54:09;46.20;;;10.35;;
19101;SDS011;9683;49.028;12.064;2022-11-20T00:56:35;77.00;;;9.35;;
19101;SDS011;9683;49.028;12.064;2022-11-20T00:59:02;56.40;;;8.57;;
19101;SDS011;9683;49.028;12.064;2022-11-20T01:01:29;47.83;;;8.50;;
19101;SDS011;9683;49.028;12.064;2022-11-20T01:03:57;49.00;;;7.13;;
19101;SDS011;9683;49.028;12.064;2022-11-20T01:06:25;65.22;;;7.93;;
19101;SDS011;9683;49.028;12.064;2022-11-20T01:08:55;57.08;;;9.10;;
19101;SDS011;9683;49.028;12.064;2022-11-20T01:11:23;65.32;;;7.85;;
19101;SDS011;9683;49.028;12.064;2022-11-20T01:13:52;57.33;;;11.07;;
19101;SDS011;9683;49.028;12.064;2022-11-20T01:16:20;76.28;;;14.68;;
19101;SDS011;9683;49.028;12.064;2022-11-20T01:18:50;64.30;;;9.40;;
19101;SDS011;9683;49.028;12.064;2022-11-20T01:21:19;63.72;;;10.77;;
19101;SDS011;9683;49.028;12.064;2022-11-20T01:23:46;53.25;;;9.57;;
19101;SDS011;9683;49.028;12.064;2022-11-20T01:26:16;64.05;;;9.10;;
19101;SDS011;9683;49.028;12.064;2022-11-20T01:28:44;43.80;;;7.45;;
19101;SDS011;9683;49.028;12.064;2022-11-20T01:31:12;67.88;;;8.40;;
19101;SDS011;9683;49.028;12.064;2022-11-20T01:33:40;60.45;;;8.63;;
19101;SDS011;9683;49.028;12.064;2022-11-20T01:36:08;87.50;;;8.57;;
19101;SDS011;9683;49.028;12.064;2022-11-20T01:38:36;86.85;;;8.52;;
19101;SDS011;9683;49.028;12.064;2022-11-20T01:41:03;64.35;;;8.02;;
19101;SDS011;9683;49.028;12.064;2022-11-20T01:43:31;59.33;;;7.80;;
19101;SDS011;9683;49.028;12.064;2022-11-20T01:46:13;69.70;;;9.70;;
19101;SDS011;9683;49.028;12.064;2022-11-20T01:48:42;48.95;;;8.43;;
19101;SDS011;9683;49.028;12.064;2022-11-20T01:51:16;58.75;;;8.45;;
19101;SDS011;9683;49.028;12.064;2022-11-20T01:53:45;74.63;;;9.30;;
19101;SDS011;9683;49.028;12.064;2022-11-20T01:56:12;89.70;;;10.98;;
19101;SDS011;9683;49.028;12.064;2022-11-20T01:58:42;76.13;;;8.77;;
19101;SDS011;9683;49.028;12.064;2022-11-20T02:01:12;55.42;;;8.15;;
19101;SDS011;9683;49.028;12.064;2022-11-20T02:03:39;65.22;;;9.75;;
19101;SDS011;9683;49.028;12.064;2022-11-20T02:06:09;55.72;;;8.35;;
19101;SDS011;9683;49.028;12.064;2022-11-20T02:08:40;69.93;;;7.57;;
19101;SDS011;9683;49.028;12.064;2022-11-20T02:11:07;62.13;;;8.60;;
19101;SDS011;9683;49.028;12.064;2022-11-20T02:13:33;70.70;;;12.18;;
19101;SDS011;9683;49.028;12.064;2022-11-20T02:16:12;63.33;;;12.98;;
19101;SDS011;9683;49.028;12.064;2022-11-20T02:18:42;76.85;;;14.63;;
19101;SDS011;9683;49.028;12.064;2022-11-20T02:21:13;70.05;;;12.48;;
19101;SDS011;9683;49.028;12.064;2022-11-20T02:23:56;81.95;;;11.65;;
19101;SDS011;9683;49.028;12.064;2022-11-20T02:26:26;45.38;;;7.80;;
19101;SDS011;9683;49.028;12.064;2022-11-20T02:28:55;48.92;;;6.95;;
19101;SDS011;9683;49.028;12.064;2022-11-20T02:31:23;72.90;;;9.82;;
19101;SDS011;9683;49.028;12.064;2022-11-20T02:33:53;62.22;;;9.77;;
19101;SDS011;9683;49.028;12.064;2022-11-20T02:36:21;69.95;;;8.57;;
19101;SDS011;9683;49.028;12.064;2022-11-20T02:38:50;77.75;;;9.55;;
19101;SDS011;9683;49.028;12.064;2022-11-20T02:41:18;68.00;;;8.15;;
19101;SDS011;9683;49.028;12.064;2022-11-20T02:43:45;66.75;;;8.02;;
19101;SDS011;9683;49.028;12.064;2022-11-20T02:46:11;43.08;;;6.82;;
19101;SDS011;9683;49.028;12.064;2022-11-20T02:48:38;66.05;;;9.57;;
19101;SDS011;9683;49.028;12.064;2022-11-20T02:51:05;67.10;;;9.95;;
19101;SDS011;9683;49.028;12.064;2022-11-20T02:53:31;55.88;;;7.50;;
19101;SDS011;9683;49.028;12.064;2022-11-20T02:55:58;81.38;;;9.57;;
19101;SDS011;9683;49.028;12.064;2022-11-20T02:58:26;63.13;;;7.47;;
19101;SDS011;9683;49.028;12.064;2022-11-20T03:00:52;56.15;;;7.10;;
19101;SDS011;9683;49.028;12.064;2022-11-20T03:03:19;66.38;;;8.32;;
19101;SDS011;9683;49.028;12.064;2022-11-20T03:05:46;92.03;;;9.07;;
19101;SDS011;9683;49.028;12.064;2022-11-20T03:08:12;61.35;;;8.45;;
19101;SDS011;9683;49.028;12.064;2022-11-20T03:10:39;67.95;;;8.00;;
19101;SDS011;9683;49.028;12.064;2022-11-20T03:13:06;73.65;;;8.15;;
19101;SDS011;9683;49.028;12.064;2022-11-20T03:15:34;72.03;;;9.52;;
19101;SDS011;9683;49.028;12.064;2022-11-20T03:18:02;59.08;;;7.57;;
19101;SDS011;9683;49.028;12.064;2022-11-20T03:20:28;73.63;;;9.43;;
19101;SDS011;9683;49.028;12.064;2022-11-20T03:22:55;60.95;;;9.13;;
19101;SDS011;9683;49.028;12.064;2022-11-20T03:25:22;94.60;;;11.20;;
19101;SDS011;9683;49.028;12.064;2022-11-20T03:27:48;49.03;;;9.10;;
19101;SDS011;9683;49.028;12.064;2022-11-20T03:30:15;85.60;;;10.20;;
19101;SDS011;9683;49.028;12.064;2022-11-20T03:32:43;43.97;;;7.97;;
19101;SDS011;9683;49.028;12.064;2022-11-20T03:35:10;100.43;;;10.32;;
19101;SDS011;9683;49.028;12.064;2022-11-20T03:37:36;56.10;;;8.25;;
19101;SDS011;9683;49.028;12.064;2022-11-20T03:40:04;45.45;;;5.78;;
19101;SDS011;9683;49.028;12.064;2022-11-20T03:42:32;53.45;;;8.02;;
19101;SDS011;9683;49.028;12.064;2022-11-20T03:45:11;99.22;;;11.15;;
19101;SDS011;9683;49.028;12.064;2022-11-20T03:47:38;59.55;;;9.55;;
19101;SDS011;9683;49.028;12.064;2022-11-20T03:50:06;52.15;;;7.65;;
19101;SDS011;9683;49.028;12.064;2022-11-20T03:52:33;32.13;;;6.25;;
19101;SDS011;9683;49.028;12.064;2022-11-20T03:55:00;52.53;;;8.02;;
19101;SDS011;9683;49.028;12.064;2022-11-20T03:57:27;46.65;;;8.02;;
19101;SDS011;9683;49.028;12.064;2022-11-20T03:59:54;44.03;;;5.78;;
19101;SDS011;9683;49.028;12.064;2022-11-20T04:02:20;70.43;;;8.85;;
19101;SDS011;9683;49.028;12.064;2022-11-20T04:04:47;42.72;;;8.15;;
19101;SDS011;9683;49.028;12.064;2022-11-20T04:07:15;72.18;;;8.32;;
19101;SDS011;9683;49.028;12.064;2022-11-20T04:09:41;53.92;;;7.55;;
19101;SDS011;9683;49.028;12.064;2022-11-20T04:12:08;55.42;;;9.20;;
19101;SDS011;9683;49.028;12.064;2022-11-20T04:14:35;56.17;;;7.50;;
19101;SDS011;9683;49.028;12.064;2022-11-20T04:17:01;51.75;;;8.13;;
19101;SDS011;9683;49.028;12.064;2022-11-20T04:19:29;53.72;;;8.52;;
19101;SDS011;9683;49.028;12.064;2022-11-20T04:21:56;57.08;;;8.75;;
19101;SDS011;9683;49.028;12.064;2022-11-20T04:24:24;238.48;;;18.75;;
19101;SDS011;9683;49.028;12.064;2022-11-20T04:26:50;43.22;;;6.47;;
19101;SDS011;9683;49.028;12.064;2022-11-20T04:29:17;73.82;;;9.73;;
19101;SDS011;9683;49.028;12.064;2022-11-20T04:31:43;41.42;;;7.72;;
19101;SDS011;9683;49.028;12.064;2022-11-20T04:34:10;50.95;;;7.10;;
19101;SDS011;9683;49.028;12.064;2022-11-20T04:36:38;61.22;;;10.52;;
19101;SDS011;9683;49.028;12.064;2022-11-20T04:39:05;57.88;;;6.93;;
19101;SDS011;9683;49.028;12.064;2022-11-20T04:41:34;40.58;;;7.15;;
19101;SDS011;9683;49.028;12.064;2022-11-20T04:44:02;46.45;;;8.60;;
19101;SDS011;9683;49.028;12.064;2022-11-20T04:46:31;93.10;;;10.98;;
19101;SDS011;9683;49.028;12.064;2022-11-20T04:48:59;63.67;;;7.70;;
19101;SDS011;9683;49.028;12.064;2022-11-20T04:51:26;42.03;;;8.27;;
19101;SDS011;9683;49.028;12.064;2022-11-20T04:53:52;51.70;;;8.50;;
19101;SDS011;9683;49.028;12.064;2022-11-20T04:56:19;51.47;;;7.75;;
19101;SDS011;9683;49.028;12.064;2022-11-20T04:58:47;82.53;;;9.65;;
19101;SDS011;9683;49.028;12.064;2022-11-20T05:01:15;61.28;;;8.45;;
19101;SDS011;9683;49.028;12.064;2022-11-20T05:03:43;58.25;;;7.65;;
19101;SDS011;9683;49.028;12.064;2022-11-20T05:06:11;78.65;;;10.05;;
19101;SDS011;9683;49.028;12.064;2022-11-20T05:08:39;63.75;;;8.68;;
19101;SDS011;9683;49.028;12.064;2022-11-20T05:11:07;73.35;;;7.53;;
19101;SDS011;9683;49.028;12.064;2022-11-20T05:13:35;52.83;;;8.52;;
19101;SDS011;9683;49.028;12.064;2022-11-20T05:16:04;52.35;;;8.50;;
19101;SDS011;9683;49.028;12.064;2022-11-20T05:18:32;48.50;;;8.43;;
19101;SDS011;9683;49.028;12.064;2022-11-20T05:20:59;53.30;;;7.65;;
19101;SDS011;9683;49.028;12.064;2022-11-20T05:23:26;57.40;;;8.15;;
19101;SDS011;9683;49.028;12.064;2022-11-20T05:25:53;74.95;;;10.80;;
19101;SDS011;9683;49.028;12.064;2022-11-20T05:28:21;55.13;;;7.10;;
19101;SDS011;9683;49.028;12.064;2022-11-20T05:30:48;72.63;;;8.70;;
19101;SDS011;9683;49.028;12.064;2022-11-20T05:33:16;50.63;;;9.45;;
19101;SDS011;9683;49.028;12.064;2022-11-20T05:35:43;86.20;;;9.20;;
19101;SDS011;9683;49.028;12.064;2022-11-20T05:38:10;81.43;;;10.27;;
19101;SDS011;9683;49.028;12.064;2022-11-20T05:40:37;49.97;;;8.82;;
19101;SDS011;9683;49.028;12.064;2022-11-20T05:43:04;42.65;;;8.07;;
19101;SDS011;9683;49.028;12.064;2022-11-20T05:45:30;60.25;;;9.55;;
19101;SDS011;9683;49.028;12.064;2022-11-20T05:47:57;53.65;;;8.82;;
19101;SDS011;9683;49.028;12.064;2022-11-20T05:50:27;65.57;;;9.60;;
19101;SDS011;9683;49.028;12.064;2022-11-20T05:52:53;65.72;;;10.75;;
19101;SDS011;9683;49.028;12.064;2022-11-20T05:55:20;117.20;;;12.18;;
19101;SDS011;9683;49.028;12.064;2022-11-20T05:57:47;54.85;;;9.43;;
19101;SDS011;9683;49.028;12.064;2022-11-20T06:00:14;51.33;;;10.23;;
19101;SDS011;9683;49.028;12.064;2022-11-20T06:02:41;52.80;;;7.75;;
19101;SDS011;9683;49.028;12.064;2022-11-20T06:05:08;79.15;;;11.05;;
19101;SDS011;9683;49.028;12.064;2022-11-20T06:07:36;45.15;;;8.55;;
19101;SDS011;9683;49.028;12.064;2022-11-20T06:10:03;41.40;;;7.68;;
19101;SDS011;9683;49.028;12.064;2022-11-20T06:12:31;56.30;;;8.98;;
19101;SDS011;9683;49.028;12.064;2022-11-20T06:14:58;61.28;;;10.30;;
19101;SDS011;9683;49.028;12.064;2022-11-20T06:17:25;74.53;;;10.52;;
19101;SDS011;9683;49.028;12.064;2022-11-20T06:19:52;80.45;;;9.75;;
19101;SDS011;9683;49.028;12.064;2022-11-20T06:22:18;55.42;;;9.75;;
19101;SDS011;9683;49.028;12.064;2022-11-20T06:24:46;58.78;;;9.35;;
19101;SDS011;9683;49.028;12.064;2022-11-20T06:27:13;47.15;;;10.93;;
19101;SDS011;9683;49.028;12.064;2022-11-20T06:29:40;60.22;;;8.77;;
19101;SDS011;9683;49.028;12.064;2022-11-20T06:32:06;56.95;;;9.82;;
19101;SDS011;9683;49.028;12.064;2022-11-20T06:34:33;67.07;;;10.25;;
19101;SDS011;9683;49.028;12.064;2022-11-20T06:36:59;57.72;;;10.32;;
19101;SDS011;9683;49.028;12.064;2022-11-20T06:39:26;92.03;;;11.43;;
19101;SDS011;9683;49.028;12.064;2022-11-20T06:41:54;79.18;;;10.70;;
19101;SDS011;9683;49.028;12.064;2022-11-20T06:44:20;63.20;;;9.50;;
19101;SDS011;9683;49.028;12.064;2022-11-20T06:46:47;67.85;;;10.18;;
19101;SDS011;9683;49.028;12.064;2022-11-20T06:49:14;69.38;;;10.10;;
19101;SDS011;9683;49.028;12.064;2022-11-20T06:51:40;82.55;;;11.38;;
19101;SDS011;9683;49.028;12.064;2022-11-20T06:54:07;42.78;;;7.60;;
19101;SDS011;9683;49.028;12.064;2022-11-20T06:56:34;61.33;;;11.20;;
19101;SDS011;9683;49.028;12.064;2022-11-20T06:59:04;63.50;;;10.05;;
19101;SDS011;9683;49.028;12.064;2022-11-20T07:01:31;94.68;;;12.38;;
19101;SDS011;9683;49.028;12.064;2022-11-20T07:03:58;84.13;;;9.70;;
19101;SDS011;9683;49.028;12.064;2022-11-20T07:06:24;65.97;;;11.68;;
19101;SDS011;9683;49.028;12.064;2022-11-20T07:08:51;66.40;;;11.55;;
19101;SDS011;9683;49.028;12.064;2022-11-20T07:11:18;58.15;;;10.48;;
19101;SDS011;9683;49.028;12.064;2022-11-20T07:13:45;66.15;;;11.05;;
19101;SDS011;9683;49.028;12.064;2022-11-20T07:16:13;57.85;;;10.35;;
19101;SDS011;9683;49.028;12.064;2022-11-20T07:18:39;84.18;;;12.23;;
19101;SDS011;9683;49.028;12.064;2022-11-20T07:21:06;67.28;;;10.30;;
19101;SDS011;9683;49.028;12.064;2022-11-20T07:23:34;72.88;;;11.95;;
19101;SDS011;9683;49.028;12.064;2022-11-20T07:26:02;80.30;;;12.60;;
19101;SDS011;9683;49.028;12.064;2022-11-20T07:28:29;42.30;;;8.98;;
19101;SDS011;9683;49.028;12.064;2022-11-20T07:30:56;61.47;;;7.65;;
19101;SDS011;9683;49.028;12.064;2022-11-20T07:33:24;58.28;;;10.27;;
19101;SDS011;9683;49.028;12.064;2022-11-20T07:35:51;76.63;;;10.48;;
19101;SDS011;9683;49.028;12.064;2022-11-20T07:38:17;69.10;;;9.45;;
19101;SDS011;9683;49.028;12.064;2022-11-20T07:40:44;76.43;;;10.02;;
19101;SDS011;9683;49.028;12.064;2022-11-20T07:43:11;47.30;;;9.40;;
19101;SDS011;9683;49.028;12.064;2022-11-20T07:45:38;82.97;;;9.55;;
19101;SDS011;9683;49.028;12.064;2022-11-20T07:48:05;50.15;;;9.80;;
19101;SDS011;9683;49.028;12.064;2022-11-20T07:50:33;56.10;;;9.82;;
19101;SDS011;9683;49.028;12.064;2022-11-20T07:53:00;52.38;;;7.95;;
19101;SDS011;9683;49.028;12.064;2022-11-20T07:55:28;81.20;;;9.77;;
19101;SDS011;9683;49.028;12.064;2022-11-20T07:57:54;56.08;;;8.60;;
19101;SDS011;9683;49.028;12.064;2022-11-20T08:00:22;84.13;;;9.27;;
19101;SDS011;9683;49.028;12.064;2022-11-20T08:02:48;59.58;;;9.55;;
19101;SDS011;9683;49.028;12.064;2022-11-20T08:05:15;97.50;;;11.82;;
19101;SDS011;9683;49.028;12.064;2022-11-20T08:07:43;66.90;;;11.30;;
19101;SDS011;9683;49.028;12.064;2022-11-20T08:10:11;50.75;;;7.88;;
19101;SDS011;9683;49.028;12.064;2022-11-20T08:12:43;62.75;;;9.50;;
19101;SDS011;9683;49.028;12.064;2022-11-20T08:15:28;43.10;;;6.85;;
19101;SDS011;9683;49.028;12.064;2022-11-20T08:17:59;68.28;;;9.55;;
19101;SDS011;9683;49.028;12.064;2022-11-20T08:20:26;60.50;;;7.75;;
19101;SDS011;9683;49.028;12.064;2022-11-20T08:22:58;82.72;;;9.20;;
19101;SDS011;9683;49.028;12.064;2022-11-20T08:25:26;97.47;;;8.85;;
19101;SDS011;9683;49.028;12.064;2022-11-20T08:27:53;76.13;;;8.43;;
19101;SDS011;9683;49.028;12.064;2022-11-20T08:30:19;84.63;;;9.45;;
19101;SDS011;9683;49.028;12.064;2022-11-20T08:32:46;60.08;;;8.80;;
19101;SDS011;9683;49.028;12.064;2022-11-20T08:35:13;120.32;;;10.82;;
19101;SDS011;9683;49.028;12.064;2022-11-20T08:37:40;63.78;;;6.97;;
19101;SDS011;9683;49.028;12.064;2022-11-20T08:40:09;62.65;;;8.10;;
19101;SDS011;9683;49.028;12.064;2022-11-20T08:42:37;67.00;;;8.10;;
19101;SDS011;9683;49.028;12.064;2022-11-20T08:45:12;83.68;;;9.13;;
19101;SDS011;9683;49.028;12.064;2022-11-20T08:47:39;81.07;;;8.25;;
19101;SDS011;9683;49.028;12.064;2022-11-20T08:50:06;99.88;;;10.48;;
19101;SDS011;9683;49.028;12.064;2022-11-20T08:52:33;86.28;;;10.75;;
19101;SDS011;9683;49.028;12.064;2022-11-20T08:55:00;78.30;;;9.00;;
19101;SDS011;9683;49.028;12.064;2022-11-20T08:57:28;58.60;;;7.78;;
19101;SDS011;9683;49.028;12.064;2022-11-20T08:59:57;76.55;;;8.70;;
19101;SDS011;9683;49.028;12.064;2022-11-20T09:02:24;70.65;;;8.90;;
19101;SDS011;9683;49.028;12.064;2022-11-20T09:04:50;66.43;;;8.88;;
19101;SDS011;9683;49.028;12.064;2022-11-20T09:07:18;60.95;;;6.40;;
19101;SDS011;9683;49.028;12.064;2022-11-20T09:09:45;53.67;;;7.18;;
19101;SDS011;9683;49.028;12.064;2022-11-20T09:12:12;71.13;;;7.97;;
19101;SDS011;9683;49.028;12.064;2022-11-20T09:14:41;79.45;;;9.38;;
19101;SDS011;9683;49.028;12.064;2022-11-20T09:17:09;64.25;;;7.55;;
19101;SDS011;9683;49.028;12.064;2022-11-20T09:19:38;67.43;;;7.22;;
19101;SDS011;9683;49.028;12.064;2022-11-20T09:22:05;50.75;;;6.55;;
19101;SDS011;9683;49.028;12.064;2022-11-20T09:24:32;103.55;;;8.90;;
19101;SDS011;9683;49.028;12.064;2022-11-20T09:27:00;62.65;;;6.97;;
19101;SDS011;9683;49.028;12.064;2022-11-20T09:29:28;60.25;;;7.30;;
19101;SDS011;9683;49.028;12.064;2022-11-20T09:31:56;81.53;;;7.97;;
19101;SDS011;9683;49.028;12.064;2022-11-20T09:34:23;59.88;;;7.68;;
19101;SDS011;9683;49.028;12.064;2022-11-20T09:36:49;44.35;;;5.05;;
19101;SDS011;9683;49.028;12.064;2022-11-20T09:39:16;48.38;;;5.75;;
19101;SDS011;9683;49.028;12.064;2022-11-20T09:41:47;72.28;;;6.93;;
19101;SDS011;9683;49.028;12.064;2022-11-20T09:44:28;65.43;;;7.32;;
19101;SDS011;9683;49.028;12.064;2022-11-20T09:47:07;54.85;;;5.47;;
19101;SDS011;9683;49.028;12.064;2022-11-20T09:49:40;101.25;;;7.95;;
19101;SDS011;9683;49.028;12.064;2022-11-20T09:52:21;56.30;;;5.68;;
19101;SDS011;9683;49.028;12.064;2022-11-20T09:54:56;54.10;;;5.72;;
19101;SDS011;9683;49.028;12.064;2022-11-20T09:57:25;50.47;;;5.90;;
19101;SDS011;9683;49.028;12.064;2022-11-20T09:59:59;63.75;;;5.63;;
19101;SDS011;9683;49.028;12.064;2022-11-20T10:02:29;51.90;;;5.75;;
19101;SDS011;9683;49.028;12.064;2022-11-20T10:05:02;57.92;;;6.00;;
19101;SDS011;9683;49.028;12.064;2022-11-20T10:07:34;70.72;;;6.30;;
19101;SDS011;9683;49.028;12.064;2022-11-20T10:10:05;71.13;;;6.50;;
19101;SDS011;9683;49.028;12.064;2022-11-20T10:12:45;38.00;;;5.50;;
19101;SDS011;9683;49.028;12.064;2022-11-20T10:15:29;73.03;;;7.07;;
19101;SDS011;9683;49.028;12.064;2022-11-20T10:18:14;52.80;;;5.30;;
19101;SDS011;9683;49.028;12.064;2022-11-20T10:20:50;83.20;;;6.85;;
19101;SDS011;9683;49.028;12.064;2022-11-20T10:23:41;54.90;;;6.15;;
19101;SDS011;9683;49.028;12.064;2022-11-20T10:26:21;66.53;;;6.00;;
19101;SDS011;9683;49.028;12.064;2022-11-20T10:28:56;73.72;;;7.93;;
19101;SDS011;9683;49.028;12.064;2022-11-20T10:31:33;39.30;;;3.95;;
19101;SDS011;9683;49.028;12.064;2022-11-20T10:34:03;39.08;;;4.47;;
19101;SDS011;9683;49.028;12.064;2022-11-20T10:36:33;56.38;;;5.65;;
19101;SDS011;9683;49.028;12.064;2022-11-20T10:39:05;34.53;;;5.72;;
19101;SDS011;9683;49.028;12.064;2022-11-20T10:41:39;46.35;;;6.53;;
19101;SDS011;9683;49.028;12.064;2022-11-20T10:44:09;51.70;;;5.75;;
19101;SDS011;9683;49.028;12.064;2022-11-20T10:47:00;63.95;;;6.18;;
19101;SDS011;9683;49.028;12.064;2022-11-20T10:49:30;83.40;;;8.18;;
19101;SDS011;9683;49.028;12.064;2022-11-20T10:51:59;53.97;;;5.22;;
19101;SDS011;9683;49.028;12.064;2022-11-20T10:54:36;73.45;;;7.00;;
19101;SDS011;9683;49.028;12.064;2022-11-20T10:57:12;45.92;;;5.75;;
19101;SDS011;9683;49.028;12.064;2022-11-20T10:59:57;46.15;;;4.50;;
19101;SDS011;9683;49.028;12.064;2022-11-20T11:02:32;77.72;;;6.35;;
19101;SDS011;9683;49.028;12.064;2022-11-20T11:05:07;56.15;;;5.43;;
19101;SDS011;9683;49.028;12.064;2022-11-20T11:07:38;41.47;;;4.88;;
19101;SDS011;9683;49.028;12.064;2022-11-20T11:10:12;55.67;;;5.43;;
19101;SDS011;9683;49.028;12.064;2022-11-20T11:12:43;27.50;;;4.22;;
19101;SDS011;9683;49.028;12.064;2022-11-20T11:15:12;84.60;;;7.47;;
19101;SDS011;9683;49.028;12.064;2022-11-20T11:17:45;52.15;;;5.25;;
19101;SDS011;9683;49.028;12.064;2022-11-20T11:20:18;61.78;;;5.63;;
19101;SDS011;9683;49.028;12.064;2022-11-20T11:22:46;62.63;;;5.82;;
19101;SDS011;9683;49.028;12.064;2022-11-20T11:25:21;93.47;;;7.90;;
19101;SDS011;9683;49.028;12.064;2022-11-20T11:27:51;84.40;;;8.00;;
19101;SDS011;9683;49.028;12.064;2022-11-20T11:30:20;113.85;;;8.52;;
19101;SDS011;9683;49.028;12.064;2022-11-20T11:32:47;86.35;;;6.80;;
19101;SDS011;9683;49.028;12.064;2022-11-20T11:35:20;105.15;;;8.55;;
19101;SDS011;9683;49.028;12.064;2022-11-20T11:37:49;35.38;;;4.82;;
19101;SDS011;9683;49.028;12.064;2022-11-20T11:40:17;70.07;;;6.72;;
19101;SDS011;9683;49.028;12.064;2022-11-20T11:42:46;49.35;;;5.28;;
19101;SDS011;9683;49.028;12.064;2022-11-20T11:45:18;100.85;;;7.90;;
19101;SDS011;9683;49.028;12.064;2022-11-20T11:47:46;67.28;;;7.28;;
19101;SDS011;9683;49.028;12.064;2022-11-20T11:50:17;72.60;;;7.53;;
19101;SDS011;9683;49.028;12.064;2022-11-20T11:52:49;52.58;;;5.75;;
19101;SDS011;9683;49.028;12.064;2022-11-20T11:55:25;107.88;;;8.15;;
19101;SDS011;9683;49.028;12.064;2022-11-20T11:57:59;72.90;;;6.00;;
19101;SDS011;9683;49.028;12.064;2022-11-20T12:00:33;75.88;;;7.03;;
19101;SDS011;9683;49.028;12.064;2022-11-20T12:03:04;55.42;;;5.90;;
19101;SDS011;9683;49.028;12.064;2022-11-20T12:05:38;72.47;;;6.82;;
19101;SDS011;9683;49.028;12.064;2022-11-20T12:08:12;56.50;;;6.22;;
19101;SDS011;9683;49.028;12.064;2022-11-20T12:10:44;55.20;;;5.00;;
19101;SDS011;9683;49.028;12.064;2022-11-20T12:13:17;50.03;;;5.13;;
19101;SDS011;9683;49.028;12.064;2022-11-20T12:15:48;67.45;;;5.43;;
19101;SDS011;9683;49.028;12.064;2022-11-20T12:18:15;59.65;;;5.68;;
19101;SDS011;9683;49.028;12.064;2022-11-20T12:20:48;63.55;;;5.65;;
19101;SDS011;9683;49.028;12.064;2022-11-20T12:23:25;60.03;;;5.30;;
19101;SDS011;9683;49.028;12.064;2022-11-20T12:25:56;38.47;;;4.30;;
19101;SDS011;9683;49.028;12.064;2022-11-20T12:28:31;75.35;;;5.65;;
19101;SDS011;9683;49.028;12.064;2022-11-20T12:31:11;54.30;;;4.90;;
19101;SDS011;9683;49.028;12.064;2022-11-20T12:33:53;42.33;;;5.22;;
19101;SDS011;9683;49.028;12.064;2022-11-20T12:36:35;59.60;;;5.30;;
19101;SDS011;9683;49.028;12.064;2022-11-20T12:39:16;70.72;;;6.05;;
19101;SDS011;9683;49.028;12.064;2022-11-20T12:42:09;48.30;;;5.18;;
19101;SDS011;9683;49.028;12.064;2022-11-20T12:45:21;66.00;;;7.47;;
19101;SDS011;9683;49.028;12.064;2022-11-20T12:48:18;97.78;;;6.95;;
19101;SDS011;9683;49.028;12.064;2022-11-20T12:51:08;35.05;;;3.65;;
19101;SDS011;9683;49.028;12.064;2022-11-20T12:53:53;41.20;;;4.03;;
19101;SDS011;9683;49.028;12.064;2022-11-20T12:56:35;64.60;;;6.35;;
19101;SDS011;9683;49.028;12.064;2022-11-20T12:59:14;37.28;;;4.28;;
19101;SDS011;9683;49.028;12.064;2022-11-20T13:02:03;60.22;;;5.22;;
19101;SDS011;9683;49.028;12.064;2022-11-20T13:04:47;52.78;;;4.05;;
19101;SDS011;9683;49.028;12.064;2022-11-20T13:07:26;75.88;;;5.75;;
19101;SDS011;9683;49.028;12.064;2022-11-20T13:09:55;45.60;;;4.43;;
19101;SDS011;9683;49.028;12.064;2022-11-20T13:12:25;40.38;;;3.83;;
19101;SDS011;9683;49.028;12.064;2022-11-20T13:15:00;48.17;;;5.00;;
19101;SDS011;9683;49.028;12.064;2022-11-20T13:17:37;113.65;;;7.95;;
19101;SDS011;9683;49.028;12.064;2022-11-20T13:20:12;51.70;;;4.45;;
19101;SDS011;9683;49.028;12.064;2022-11-20T13:22:42;50.90;;;4.45;;
19101;SDS011;9683;49.028;12.064;2022-11-20T13:25:21;49.97;;;4.82;;
19101;SDS011;9683;49.028;12.064;2022-11-20T13:27:48;60.90;;;4.97;;
19101;SDS011;9683;49.028;12.064;2022-11-20T13:30:16;45.75;;;4.28;;
19101;SDS011;9683;49.028;12.064;2022-11-20T13:32:48;54.92;;;4.22;;
19101;SDS011;9683;49.028;12.064;2022-11-20T13:35:23;112.28;;;7.25;;
19101;SDS011;9683;49.028;12.064;2022-11-20T13:37:59;59.20;;;5.13;;
19101;SDS011;9683;49.028;12.064;2022-11-20T13:40:29;51.00;;;4.80;;
19101;SDS011;9683;49.028;12.064;2022-11-20T13:43:01;42.47;;;3.78;;
19101;SDS011;9683;49.028;12.064;2022-11-20T13:45:34;54.03;;;4.60;;
19101;SDS011;9683;49.028;12.064;2022-11-20T13:48:01;73.30;;;5.35;;
19101;SDS011;9683;49.028;12.064;2022-11-20T13:50:40;77.93;;;5.57;;
19101;SDS011;9683;49.028;12.064;2022-11-20T13:53:15;62.05;;;4.47;;
19101;SDS011;9683;49.028;12.064;2022-11-20T13:56:00;55.50;;;4.57;;
19101;SDS011;9683;49.028;12.064;2022-11-20T13:58:35;48.17;;;4.00;;
19101;SDS011;9683;49.028;12.064;2022-11-20T14:01:10;54.35;;;4.10;;
19101;SDS011;9683;49.028;12.064;2022-11-20T14:03:41;42.70;;;4.68;;
19101;SDS011;9683;49.028;12.064;2022-11-20T14:06:11;47.55;;;3.72;;
19101;SDS011;9683;49.028;12.064;2022-11-20T14:08:40;34.42;;;3.03;;
19101;SDS011;9683;49.028;12.064;2022-11-20T14:11:16;66.00;;;4.53;;
19101;SDS011;9683;49.028;12.064;2022-11-20T14:13:51;45.17;;;3.65;;
19101;SDS011;9683;49.028;12.064;2022-11-20T14:16:20;48.17;;;3.60;;
19101;SDS011;9683;49.028;12.064;2022-11-20T14:18:46;50.58;;;3.90;;
19101;SDS011;9683;49.028;12.064;2022-11-20T14:21:20;49.13;;;3.95;;
19101;SDS011;9683;49.028;12.064;2022-11-20T14:23:48;77.63;;;5.15;;
19101;SDS011;9683;49.028;12.064;2022-11-20T14:26:17;63.75;;;4.85;;
19101;SDS011;9683;49.028;12.064;2022-11-20T14:28:47;61.20;;;5.20;;
19101;SDS011;9683;49.028;12.064;2022-11-20T14:31:16;39.50;;;3.75;;
19101;SDS011;9683;49.028;12.064;2022-11-20T14:33:48;58.05;;;5.25;;
19101;SDS011;9683;49.028;12.064;2022-11-20T14:36:16;48.75;;;4.35;;
19101;SDS011;9683;49.028;12.064;2022-11-20T14:38:43;57.67;;;5.43;;
19101;SDS011;9683;49.028;12.064;2022-11-20T14:41:16;55.92;;;5.63;;
19101;SDS011;9683;49.028;12.064;2022-11-20T14:43:45;72.28;;;5.28;;
19101;SDS011;9683;49.028;12.064;2022-11-20T14:46:13;60.45;;;5.10;;